Tropical Cyclones
[Index]
Main Index Home Page Stock Weather Photos Extreme Storms Discussion Storm News and Storm Chasing Reports Tropical Cyclones / Hurricanes / Typhoons Weather Data and Links Wild Fires / Bushfires Weather Observation Techniques Weather Picture Catalogue Tornado Pictures and Reports Stock Video Footage and DVDs for sale
Season 1977-1978 Tropical Cyclone 197829 Track Map
Season 1977-1978 Summaries: [BoM-AU] [JTWC-AU] [JTWC-SIO] [JTWC-SPAC] [JTWC-SH]
<<- Previous TC | JTWC 1977-1978 Season | Next TC ->>

click for intensity scale information  Lat/long Grid: Show Hide

 Date Labels: Show Hide

Joint Typhoon Warning Centre Cyclone Data

Name: 197829
Number: 985 / 7829

27 Mar 1978 00:00 UTC to 01 Apr 1978 00:00 UTC

    date/time    lat    long     hPa   cat  kts
1978-03-27 00   13.7   115.0                  25          
1978-03-27 06   13.9   114.8                  25          
1978-03-27 12   14.1   114.5                  25          
1978-03-27 18   14.3   114.1                  25          
1978-03-28 00   14.6   113.7                  30          
1978-03-28 06   14.7   113.2                  30          
1978-03-28 12   14.9   112.8                  30          
1978-03-28 18   15.3   112.4                  30          
1978-03-29 00   15.8   112.2                  35          
1978-03-29 06   16.2   112.1                  35          
1978-03-29 12   16.7   111.9            1     40          
1978-03-29 18   17.1   111.8            1     40          
1978-03-30 00   17.6   111.6            1     45          
1978-03-30 06   18.0   111.4            2     55          
1978-03-30 12   18.3   111.1            2     65          
1978-03-30 18   18.6   110.6            2     70          
1978-03-31 00   18.8   110.1            3     75          
1978-03-31 06   19.0   109.7            3     85          
1978-03-31 12   19.2   109.3            3     90          
1978-03-31 18   19.5   108.9            3     95          
1978-04-01 00   19.8   108.4            4    100          
Winds are 1-min average.

Tropical cyclone tracks developed by Michael Bath using data from the Joint Typhoon Warning Centre Best Tracks and Google Maps.


[Australian Severe Weather index] [Copyright Notice] [Email Contacts] [Search This Site] [Privacy Policy]
Document: tropical_cyclone_197829.htm Updated: 18 September 2016